sensor_id;sensor_type;location;lat;lon;timestamp;pressure;altitude;pressure_sealevel;temperature;humidity
72707;BME280;62517;62.630;17.936;2022-10-03T05:55:51;101230.52;;;17.74;41.44
72707;BME280;62517;62.630;17.936;2022-10-03T05:58:43;101233.16;;;17.80;41.16
72707;BME280;62517;62.630;17.936;2022-10-03T06:01:40;101234.05;;;17.80;40.85
72707;BME280;62517;62.630;17.936;2022-10-03T06:04:31;101236.64;;;17.85;40.61
72707;BME280;62517;62.630;17.936;2022-10-03T06:07:17;101234.56;;;17.87;40.47
72707;BME280;62517;62.630;17.936;2022-10-03T06:13:37;101241.94;;;18.24;39.96
72707;BME280;62517;62.630;17.936;2022-10-03T06:16:26;101242.92;;;18.50;39.64
72707;BME280;62517;62.630;17.936;2022-10-03T06:19:12;101239.32;;;18.86;39.30
72707;BME280;62517;62.630;17.936;2022-10-03T06:22:09;101238.84;;;19.07;38.99
72707;BME280;62517;62.630;17.936;2022-10-03T06:30:08;101234.10;;;19.94;37.91
72707;BME280;62517;62.630;17.936;2022-10-03T06:33:00;101236.93;;;20.13;37.74
72707;BME280;62517;62.630;17.936;2022-10-03T06:36:09;101236.71;;;20.68;37.28
72707;BME280;62517;62.630;17.936;2022-10-03T06:39:49;101237.21;;;20.60;36.94
72707;BME280;62517;62.630;17.936;2022-10-03T06:42:41;101239.02;;;20.70;36.82
72707;BME280;62517;62.630;17.936;2022-10-03T06:45:31;101242.16;;;20.94;36.67
72707;BME280;62517;62.630;17.936;2022-10-03T06:49:11;101250.26;;;20.96;36.38
72707;BME280;62517;62.630;17.936;2022-10-03T06:51:59;101257.03;;;21.20;36.22
72707;BME280;62517;62.630;17.936;2022-10-03T06:54:57;101259.32;;;21.35;35.48
72707;BME280;62517;62.630;17.936;2022-10-03T06:57:47;101261.32;;;21.46;35.77
72707;BME280;62517;62.630;17.936;2022-10-03T07:00:23;101260.14;;;21.52;35.38
72707;BME280;62517;62.630;17.936;2022-10-03T07:03:17;101260.83;;;21.62;35.54
72707;BME280;62517;62.630;17.936;2022-10-03T07:06:16;101260.54;;;21.83;35.11
72707;BME280;62517;62.630;17.936;2022-10-03T07:09:23;101261.54;;;21.95;35.32
72707;BME280;62517;62.630;17.936;2022-10-03T07:16:56;101270.17;;;22.18;35.04
72707;BME280;62517;62.630;17.936;2022-10-03T07:19:42;101272.29;;;22.21;34.68
72707;BME280;62517;62.630;17.936;2022-10-03T07:22:59;101275.83;;;22.30;34.27
72707;BME280;62517;62.630;17.936;2022-10-03T07:25:51;101280.18;;;22.46;34.24
72707;BME280;62517;62.630;17.936;2022-10-03T07:28:48;101282.44;;;22.48;34.53
72707;BME280;62517;62.630;17.936;2022-10-03T07:31:35;101281.44;;;22.57;34.55
72707;BME280;62517;62.630;17.936;2022-10-03T07:37:56;101281.13;;;22.70;34.24
72707;BME280;62517;62.630;17.936;2022-10-03T07:40:53;101285.06;;;22.73;34.27
72707;BME280;62517;62.630;17.936;2022-10-03T07:43:57;101286.67;;;22.79;34.14
72707;BME280;62517;62.630;17.936;2022-10-03T07:47:55;101290.23;;;22.88;33.62
72707;BME280;62517;62.630;17.936;2022-10-03T07:50:47;101290.52;;;22.91;34.11
72707;BME280;62517;62.630;17.936;2022-10-03T07:53:29;101294.36;;;22.95;33.81
72707;BME280;62517;62.630;17.936;2022-10-03T07:56:13;101296.66;;;22.97;34.00
72707;BME280;62517;62.630;17.936;2022-10-03T07:58:58;101297.58;;;22.97;33.56
72707;BME280;62517;62.630;17.936;2022-10-03T08:01:46;101297.89;;;23.14;33.76
72707;BME280;62517;62.630;17.936;2022-10-03T08:04:33;101301.19;;;23.14;33.72
72707;BME280;62517;62.630;17.936;2022-10-03T08:07:21;101300.65;;;23.23;33.51
72707;BME280;62517;62.630;17.936;2022-10-03T08:10:05;101299.95;;;23.17;33.45
72707;BME280;62517;62.630;17.936;2022-10-03T08:13:05;101306.16;;;23.20;33.59
72707;BME280;62517;62.630;17.936;2022-10-03T08:15:54;101306.11;;;23.28;33.66
72707;BME280;62517;62.630;17.936;2022-10-03T08:19:10;101310.16;;;23.25;33.28
72707;BME280;62517;62.630;17.936;2022-10-03T08:21:54;101312.07;;;23.41;33.60
72707;BME280;62517;62.630;17.936;2022-10-03T08:24:41;101316.08;;;23.23;33.55
72707;BME280;62517;62.630;17.936;2022-10-03T08:27:25;101318.42;;;23.38;33.47
72707;BME280;62517;62.630;17.936;2022-10-03T08:30:19;101320.20;;;23.47;33.45
72707;BME280;62517;62.630;17.936;2022-10-03T08:36:12;101322.87;;;23.39;33.41
72707;BME280;62517;62.630;17.936;2022-10-03T08:38:50;101321.99;;;23.62;33.08
72707;BME280;62517;62.630;17.936;2022-10-03T08:46:20;101317.05;;;23.61;33.38
72707;BME280;62517;62.630;17.936;2022-10-03T08:49:02;101316.01;;;23.58;33.07
72707;BME280;62517;62.630;17.936;2022-10-03T08:51:52;101319.96;;;23.57;33.24
72707;BME280;62517;62.630;17.936;2022-10-03T08:54:36;101320.29;;;23.59;33.25
72707;BME280;62517;62.630;17.936;2022-10-03T08:57:25;101320.83;;;23.61;33.25
72707;BME280;62517;62.630;17.936;2022-10-03T09:00:07;101319.79;;;23.69;32.73
72707;BME280;62517;62.630;17.936;2022-10-03T09:04:06;101316.52;;;23.70;32.98
72707;BME280;62517;62.630;17.936;2022-10-03T09:06:57;101316.17;;;23.67;32.75
72707;BME280;62517;62.630;17.936;2022-10-03T09:10:21;101319.40;;;23.78;33.24
72707;BME280;62517;62.630;17.936;2022-10-03T09:13:13;101323.01;;;23.88;33.15
72707;BME280;62517;62.630;17.936;2022-10-03T09:16:09;101321.53;;;23.72;32.69
72707;BME280;62517;62.630;17.936;2022-10-03T09:18:55;101323.61;;;23.82;33.16
72707;BME280;62517;62.630;17.936;2022-10-03T09:21:39;101327.03;;;23.78;33.17
72707;BME280;62517;62.630;17.936;2022-10-03T09:24:47;101326.25;;;23.83;32.86
72707;BME280;62517;62.630;17.936;2022-10-03T09:27:33;101323.94;;;23.91;33.13
72707;BME280;62517;62.630;17.936;2022-10-03T09:30:15;101324.03;;;23.90;32.91
72707;BME280;62517;62.630;17.936;2022-10-03T09:33:03;101327.11;;;23.91;32.75
72707;BME280;62517;62.630;17.936;2022-10-03T09:36:07;101328.22;;;24.01;33.03
72707;BME280;62517;62.630;17.936;2022-10-03T09:38:50;101329.89;;;23.93;32.96
72707;BME280;62517;62.630;17.936;2022-10-03T09:41:43;101330.66;;;23.98;32.76
72707;BME280;62517;62.630;17.936;2022-10-03T09:44:36;101330.21;;;24.01;32.84
72707;BME280;62517;62.630;17.936;2022-10-03T09:52:21;101334.50;;;24.73;32.51
72707;BME280;62517;62.630;17.936;2022-10-03T09:55:05;101335.80;;;24.17;32.76
72707;BME280;62517;62.630;17.936;2022-10-03T09:57:59;101336.10;;;24.07;32.98
72707;BME280;62517;62.630;17.936;2022-10-03T10:04:13;101340.11;;;24.05;33.08
72707;BME280;62517;62.630;17.936;2022-10-03T10:07:21;101341.84;;;24.13;32.98
72707;BME280;62517;62.630;17.936;2022-10-03T10:10:28;101337.72;;;24.14;33.10
72707;BME280;62517;62.630;17.936;2022-10-03T10:13:16;101335.32;;;24.08;32.98
72707;BME280;62517;62.630;17.936;2022-10-03T10:21:06;101343.27;;;24.72;32.51
72707;BME280;62517;62.630;17.936;2022-10-03T10:23:53;101346.52;;;24.13;32.98
72707;BME280;62517;62.630;17.936;2022-10-03T10:27:01;101346.98;;;24.14;32.96
72707;BME280;62517;62.630;17.936;2022-10-03T10:29:51;101349.80;;;24.01;33.13
72707;BME280;62517;62.630;17.936;2022-10-03T10:33:23;101351.61;;;24.01;32.93
72707;BME280;62517;62.630;17.936;2022-10-03T10:36:21;101360.31;;;24.09;32.98
72707;BME280;62517;62.630;17.936;2022-10-03T10:39:28;101360.91;;;24.17;33.10
72707;BME280;62517;62.630;17.936;2022-10-03T10:42:25;101359.47;;;24.24;33.08
72707;BME280;62517;62.630;17.936;2022-10-03T10:45:42;101360.31;;;24.19;32.78
72707;BME280;62517;62.630;17.936;2022-10-03T10:48:54;101360.54;;;24.25;32.99
72707;BME280;62517;62.630;17.936;2022-10-03T10:51:59;101359.62;;;24.26;33.15
72707;BME280;62517;62.630;17.936;2022-10-03T11:01:07;101357.92;;;24.28;33.34
72707;BME280;62517;62.630;17.936;2022-10-03T11:04:12;101355.84;;;24.28;33.33
72707;BME280;62517;62.630;17.936;2022-10-03T11:11:54;101360.88;;;24.95;32.98
72707;BME280;62517;62.630;17.936;2022-10-03T11:15:23;101358.41;;;24.50;33.36
72707;BME280;62517;62.630;17.936;2022-10-03T11:18:51;101360.41;;;24.42;33.55
72707;BME280;62517;62.630;17.936;2022-10-03T11:22:01;101359.56;;;24.23;33.54
72707;BME280;62517;62.630;17.936;2022-10-03T11:25:18;101358.74;;;24.20;33.59
72707;BME280;62517;62.630;17.936;2022-10-03T11:28:26;101359.31;;;24.22;33.28
72707;BME280;62517;62.630;17.936;2022-10-03T11:36:30;101362.16;;;25.14;32.92
72707;BME280;62517;62.630;17.936;2022-10-03T11:39:16;101361.38;;;24.43;33.38
72707;BME280;62517;62.630;17.936;2022-10-03T11:41:57;101365.83;;;24.35;33.52
72707;BME280;62517;62.630;17.936;2022-10-03T11:44:30;101364.38;;;24.36;33.23
72707;BME280;62517;62.630;17.936;2022-10-03T11:47:42;101364.78;;;24.31;33.23
72707;BME280;62517;62.630;17.936;2022-10-03T11:50:32;101363.81;;;24.39;33.53
72707;BME280;62517;62.630;17.936;2022-10-03T11:53:11;101360.53;;;24.45;33.21
72707;BME280;62517;62.630;17.936;2022-10-03T11:55:46;101359.92;;;24.30;33.53
72707;BME280;62517;62.630;17.936;2022-10-03T11:59:21;101360.60;;;24.37;33.54
72707;BME280;62517;62.630;17.936;2022-10-03T12:02:05;101362.35;;;24.38;33.52
72707;BME280;62517;62.630;17.936;2022-10-03T12:04:51;101363.54;;;24.43;33.45
72707;BME280;62517;62.630;17.936;2022-10-03T12:07:38;101362.26;;;24.52;33.34
72707;BME280;62517;62.630;17.936;2022-10-03T12:10:17;101363.55;;;24.41;33.15
72707;BME280;62517;62.630;17.936;2022-10-03T12:12:53;101364.38;;;24.34;33.20
72707;BME280;62517;62.630;17.936;2022-10-03T12:15:30;101366.31;;;24.45;33.48
72707;BME280;62517;62.630;17.936;2022-10-03T12:18:08;101367.58;;;24.46;33.45
72707;BME280;62517;62.630;17.936;2022-10-03T12:20:57;101370.72;;;24.52;33.45
72707;BME280;62517;62.630;17.936;2022-10-03T12:23:42;101370.63;;;24.51;33.46
72707;BME280;62517;62.630;17.936;2022-10-03T12:26:17;101374.41;;;24.52;33.22
72707;BME280;62517;62.630;17.936;2022-10-03T12:28:52;101378.16;;;24.54;33.42
72707;BME280;62517;62.630;17.936;2022-10-03T12:31:28;101383.46;;;24.52;33.43
72707;BME280;62517;62.630;17.936;2022-10-03T12:34:10;101382.06;;;24.47;33.23
72707;BME280;62517;62.630;17.936;2022-10-03T12:36:50;101381.01;;;24.58;33.39
72707;BME280;62517;62.630;17.936;2022-10-03T12:39:31;101379.95;;;24.62;33.21
72707;BME280;62517;62.630;17.936;2022-10-03T12:42:19;101384.74;;;24.48;33.40
72707;BME280;62517;62.630;17.936;2022-10-03T12:44:56;101383.37;;;24.64;33.28
72707;BME280;62517;62.630;17.936;2022-10-03T12:47:33;101384.73;;;24.67;33.21
72707;BME280;62517;62.630;17.936;2022-10-03T12:50:14;101381.98;;;24.54;33.26
72707;BME280;62517;62.630;17.936;2022-10-03T12:52:52;101381.69;;;24.59;33.36
72707;BME280;62517;62.630;17.936;2022-10-03T12:55:31;101382.69;;;24.56;33.28
72707;BME280;62517;62.630;17.936;2022-10-03T12:58:06;101381.43;;;24.67;33.19
72707;BME280;62517;62.630;17.936;2022-10-03T13:00:47;101382.65;;;24.61;33.33
72707;BME280;62517;62.630;17.936;2022-10-03T13:03:26;101380.74;;;24.56;33.05
72707;BME280;62517;62.630;17.936;2022-10-03T13:06:19;101381.28;;;24.55;33.13
72707;BME280;62517;62.630;17.936;2022-10-03T13:09:02;101383.41;;;24.68;33.35
72707;BME280;62517;62.630;17.936;2022-10-03T13:11:48;101384.74;;;24.57;33.22
72707;BME280;62517;62.630;17.936;2022-10-03T13:14:31;101384.30;;;24.74;33.19
72707;BME280;62517;62.630;17.936;2022-10-03T13:17:12;101384.84;;;24.66;33.18
72707;BME280;62517;62.630;17.936;2022-10-03T13:19:55;101386.37;;;24.79;33.23
72707;BME280;62517;62.630;17.936;2022-10-03T13:22:32;101381.74;;;24.63;33.28
72707;BME280;62517;62.630;17.936;2022-10-03T13:25:08;101381.16;;;24.67;33.27
72707;BME280;62517;62.630;17.936;2022-10-03T13:27:44;101376.53;;;24.72;33.23
72707;BME280;62517;62.630;17.936;2022-10-03T13:30:19;101376.72;;;24.62;33.24
72707;BME280;62517;62.630;17.936;2022-10-03T13:32:54;101377.61;;;24.67;32.96
72707;BME280;62517;62.630;17.936;2022-10-03T13:35:31;101371.13;;;24.69;33.18
72707;BME280;62517;62.630;17.936;2022-10-03T13:38:15;101371.92;;;24.76;33.22
72707;BME280;62517;62.630;17.936;2022-10-03T13:40:53;101370.74;;;24.66;33.03
72707;BME280;62517;62.630;17.936;2022-10-03T13:43:28;101370.73;;;24.85;33.18
72707;BME280;62517;62.630;17.936;2022-10-03T13:45:59;101367.10;;;24.80;33.19
72707;BME280;62517;62.630;17.936;2022-10-03T13:48:31;101369.24;;;24.73;33.12
72707;BME280;62517;62.630;17.936;2022-10-03T13:51:04;101368.10;;;24.74;33.19
72707;BME280;62517;62.630;17.936;2022-10-03T13:53:47;101366.47;;;24.80;33.06
72707;BME280;62517;62.630;17.936;2022-10-03T13:56:39;101368.21;;;24.79;33.13
72707;BME280;62517;62.630;17.936;2022-10-03T13:59:23;101368.21;;;24.93;33.15
72707;BME280;62517;62.630;17.936;2022-10-03T14:02:00;101368.88;;;24.80;33.15
72707;BME280;62517;62.630;17.936;2022-10-03T14:04:43;101369.21;;;24.90;32.85
72707;BME280;62517;62.630;17.936;2022-10-03T14:07:23;101370.06;;;25.02;32.88
